Shreveport Regional Airport
KSHV : now visible

Airfield :











YOU CAN JOIN US ON...

 
LOGIN :

Register | Disclaimer

   EN    FR    IT 

 









Legend :    VFR   Marginal VFR   IFR   Intensive IFR   Very Intensive IFR
Visi :
Ceiling :
>= 8 km
>= 3000ft
5 to 8 km
1000 to 3000 ft
1500m to 5 km
500 to 1000 ft
800 to 1500m
200 to 500 ft
< 800m
< 200 ft
Symbols :   Thunderstorms  Fog  Heavy snow  Heavy precipitations  Wind > 20 kt






- Airport Elevation : 258 ft
- IATA code : SHV


KSHV - Shreveport Regional

CURRENT METAR :
  • 190956Z 06004KT 7SM FEW006 SCT110 23/21 A2994 RMK AO2 SLP133 T02330211

EXPIRED METARs :
  • 190856Z 08004KT 9SM FEW005 FEW038 BKN090 23/21 A2994 RMK AO2 SLP136 T02330211 58006
  • 190756Z 36004KT 10SM FEW009 SCT046 SCT090 24/22 A2994 RMK AO2 TSE03 SLP135 OCNL LTGICCC DSNT NW TS MOV NW T02440217

TAF KSHV
Valid from the 19 at 06:00 until the 20 at 06:00 UTC


190608Z 1906/2006 10004KT P6SM VCTS FEW035CB SCT110 SCT240
FM191000 06003KT P6SM OVC004
FM191400 12004KT P6SM VCSH OVC010
FM191700 14004KT P6SM VCTS BKN035CB
FM200000 14004KT P6SM BKN250
KZFW FIR / North America



MET'MAP, your aeronautical weather chart ! - Copyright ORBIFLY December 2007 - Disclaimer

ORBIFLY MET'MAP TEAM :

Programming & Development : Alexandra Zaïnal
Concept & original design : Baudouin d'Aumeries
Assistance for programming : Marc-Olivier Méhu
Technical & hardware support : Manuel Goepfert

Contact : metmap@orbifly.com




SOURCES & CREDITS :

   NOAA       Earth
Advisory